Howell, MI

4:41 PM EST on February 11, 2016 (GMT -0500)
Livingston County

Weather History for KOZW - October, 2013

Change the Weather History Date:

Tuesday, October 8, 2013

  Actual Average Record
Temperature  
Mean Temperature 54 °F -  
Max Temperature 67 °F 63 °F 89 °F (2007)
Min Temperature 41 °F 42 °F 28 °F (2001)
Degree Days  
Heating Degree Days 11    
Growing Degree Days 4 (Base 50)    
Moisture  
Dew Point 44 °F    
Average Humidity 73    
Maximum Humidity 99    
Minimum Humidity 41    
Precipitation  
Precipitation 0.00 in - - ()
Sea Level Pressure  
Sea Level Pressure 30.23 in    
Wind  
Wind Speed 5 mph (South)    
Max Wind Speed 14 mph    
Max Gust Speed 17 mph    
Visibility 9 miles    
Events      
Averages and records for this station are not official NWS values.
T = Trace of Precipitation, MM = Missing Value Source: NWS Daily Summary

Daily Weather History Graph

Daily Weather History Graph

Search for Another Location

Airport or City:

Trip Planner

Search our weather history database for the weather conditions in past years. The results will help you decide how hot, cold, wet, or windy it might be!

Date:

Astronomy

Oct. 08, 2013 Rise Set
Actual Time 7:41 AM EDT 7:04 PM EDT
Civil Twilight 7:13 AM EDT 7:32 PM EDT
Nautical Twilight 6:40 AM EDT 8:05 PM EDT
Astronomical Twilight 6:07 AM EDT 8:38 PM EDT
Moon 11:39 AM EDT (10/8) 9:35 PM EDT (10/8)
Length of Visible Light 12h 19m
Length of Day
11h 23m
Waxing Crescent, 16% of the Moon is Illuminated
Oct 8
Waxing Crescent
Oct 11
First Quarter
Oct 18
Full
Oct 26
Last Quarter
Nov 3
New

Hourly Weather History & Observations

Time (EDT) Temp. Windchill Dew Point Humidity Pressure Visibility Wind Dir Wind Speed Gust Speed Precip Events Conditions
12:14 AM 45.5 °F 44.2 °F 43.7 °F 93% 30.11 in 10.0 mi SW 3.5 mph - N/A   Clear
12:34 AM 45.1 °F 42.8 °F 43.7 °F 95% 30.12 in 10.0 mi SW 4.6 mph - N/A   Clear
12:55 AM 45.5 °F 43.2 °F 43.9 °F 94% 30.13 in 10.0 mi SW 4.6 mph - N/A   Clear
1:14 AM 45.7 °F 43.4 °F 44.6 °F 96% 30.13 in 10.0 mi SW 4.6 mph - N/A   Clear
1:34 AM 44.6 °F 42.2 °F 43.3 °F 95% 30.13 in 10.0 mi SW 4.6 mph - N/A   Clear
1:55 AM 45.7 °F 42.7 °F 44.8 °F 97% 30.14 in 10.0 mi SSW 5.8 mph - N/A   Clear
2:14 AM 46.4 °F 42.9 °F 44.8 °F 94% 30.14 in 10.0 mi SW 6.9 mph - N/A   Clear
2:34 AM 45.0 °F 43.5 °F 43.3 °F 94% 30.14 in 10.0 mi WSW 3.5 mph - N/A   Clear
2:55 AM 45.0 °F - 43.7 °F 95% 30.15 in 10.0 mi Calm Calm - N/A   Clear
3:14 AM 44.1 °F 42.5 °F 43.2 °F 97% 30.15 in 10.0 mi SW 3.5 mph - N/A   Clear
3:34 AM 43.2 °F - 42.8 °F 99% 30.15 in 10.0 mi Calm Calm - N/A   Clear
3:55 AM 42.4 °F 40.7 °F 41.9 °F 98% 30.16 in 10.0 mi SSW 3.5 mph - N/A   Clear
4:14 AM 43.5 °F 40.9 °F 43.2 °F 99% 30.16 in 10.0 mi SSW 4.6 mph - N/A   Clear
4:35 AM 45.5 °F 42.5 °F 44.8 °F 97% 30.17 in 10.0 mi SW 5.8 mph - N/A   Clear
4:55 AM 45.5 °F 42.5 °F 44.2 °F 95% 30.17 in 10.0 mi SW 5.8 mph - N/A   Clear
5:14 AM 43.9 °F 41.3 °F 43.0 °F 97% 30.18 in 10.0 mi SSW 4.6 mph - N/A   Clear
5:35 AM 45.1 °F 42.8 °F 44.1 °F 96% 30.18 in 10.0 mi SW 4.6 mph - N/A   Clear
5:55 AM 45.1 °F 42.0 °F 43.9 °F 95% 30.19 in 10.0 mi SW 5.8 mph - N/A   Clear
6:14 AM 44.6 °F 42.2 °F 43.0 °F 94% 30.20 in 10.0 mi SW 4.6 mph - N/A   Clear
6:35 AM 43.7 °F 42.1 °F 42.4 °F 95% 30.20 in 10.0 mi SW 3.5 mph - N/A   Clear
6:55 AM 43.0 °F - 41.7 °F 95% 30.21 in 10.0 mi Calm Calm - N/A   Clear
7:14 AM 43.3 °F 41.7 °F 42.4 °F 97% 30.22 in 10.0 mi SSW 3.5 mph - N/A   Clear
7:35 AM 43.3 °F - 42.1 °F 95% 30.23 in 10.0 mi Calm Calm - N/A   Clear
7:55 AM 41.9 °F - 41.2 °F 97% 30.23 in 7.0 mi Calm Calm - N/A   Clear
8:14 AM 41.2 °F - 40.8 °F 99% 30.24 in 7.0 mi Calm Calm - N/A   Clear
8:35 AM 43.0 °F - 42.8 °F 99% 30.25 in 10.0 mi Calm Calm - N/A   Clear
8:55 AM 45.5 °F - 45.1 °F 99% 30.25 in 10.0 mi Calm Calm - N/A   Clear
9:14 AM 48.2 °F - 47.3 °F 97% 30.26 in 10.0 mi Calm Calm - N/A   Clear
9:35 AM 51.6 °F - 48.4 °F 89% 30.27 in 10.0 mi Calm Calm - N/A   Clear
9:55 AM 53.8 °F - 47.7 °F 80% 30.27 in 10.0 mi SSW 4.6 mph - N/A   Clear
10:14 AM 55.9 °F - 48.4 °F 76% 30.28 in 10.0 mi SSW 3.5 mph - N/A   Clear
10:35 AM 58.1 °F - 47.1 °F 67% 30.28 in 10.0 mi SSW 3.5 mph - N/A   Clear
10:55 AM 59.9 °F - 46.4 °F 61% 30.27 in 10.0 mi South 6.9 mph - N/A   Clear
11:14 AM 61.2 °F - 46.0 °F 58% 30.27 in 10.0 mi SSE 6.9 mph - N/A   Clear
11:35 AM 62.6 °F - 45.3 °F 53% 30.27 in 10.0 mi South 8.1 mph - N/A   Clear
11:55 AM 63.0 °F - 44.1 °F 50% 30.27 in 10.0 mi SE 9.2 mph - N/A   Clear
12:14 PM 63.7 °F - 43.3 °F 48% 30.27 in 10.0 mi South 9.2 mph - N/A   Clear
12:35 PM 64.4 °F - 44.1 °F 48% 30.27 in 10.0 mi SSE 9.2 mph - N/A   Clear
12:55 PM 64.8 °F - 43.3 °F 46% 30.27 in 10.0 mi SE 8.1 mph - N/A   Clear
1:14 PM 65.3 °F - 43.0 °F 44% 30.27 in 10.0 mi SSE 9.2 mph - N/A   Clear
1:35 PM 65.8 °F - 43.0 °F 43% 30.26 in 10.0 mi South 6.9 mph - N/A   Clear
1:55 PM 66.2 °F - 43.3 °F 44% 30.25 in 10.0 mi SSE 9.2 mph - N/A   Clear
2:14 PM 66.4 °F - 43.3 °F 43% 30.25 in 1.2 mi SE 5.8 mph - N/A   Haze
2:35 PM 66.6 °F - 43.3 °F 43% 30.24 in 0.5 mi SSE 10.4 mph 17.3 mph N/A   Haze
2:54 PM 67.1 °F - 43.7 °F 43% 30.24 in 0.5 mi SE 13.8 mph - N/A   Haze
3:14 PM 67.1 °F - 43.5 °F 42% 30.24 in 3.0 mi SSE 9.2 mph - N/A   Haze
3:35 PM 67.1 °F - 43.2 °F 42% 30.24 in 10.0 mi SSE 9.2 mph - N/A   Clear
3:54 PM 67.1 °F - 43.0 °F 42% 30.24 in 10.0 mi SSE 8.1 mph - N/A   Clear
4:14 PM 67.1 °F - 43.2 °F 42% 30.23 in 10.0 mi SE 4.6 mph - N/A   Clear
4:35 PM 67.3 °F - 43.5 °F 42% 30.23 in 10.0 mi SSE 9.2 mph - N/A   Clear
4:54 PM 67.1 °F - 42.8 °F 41% 30.23 in 10.0 mi SSE 5.8 mph - N/A   Clear
5:14 PM 66.9 °F - 43.0 °F 42% 30.23 in 10.0 mi SSE 6.9 mph - N/A   Clear
5:35 PM 66.6 °F - 43.2 °F 43% 30.23 in 10.0 mi SSE 8.1 mph - N/A   Clear
5:54 PM 66.2 °F - 43.0 °F 43% 30.23 in 10.0 mi SSE 6.9 mph - N/A   Clear
6:15 PM 65.1 °F - 43.9 °F 46% 30.23 in 10.0 mi SSE 8.1 mph - N/A   Clear
6:35 PM 63.1 °F - 44.6 °F 51% 30.23 in 10.0 mi SE 6.9 mph - N/A   Clear
6:54 PM 61.3 °F - 44.2 °F 53% 30.24 in 10.0 mi SE 8.1 mph - N/A   Clear
7:15 PM 57.9 °F - 43.7 °F 59% 30.24 in 10.0 mi SE 6.9 mph - N/A   Clear
7:35 PM 55.8 °F - 43.2 °F 63% 30.24 in 10.0 mi SE 6.9 mph - N/A   Clear
7:54 PM 54.9 °F - 43.0 °F 64% 30.25 in 10.0 mi SE 9.2 mph - N/A   Clear
8:15 PM 54.1 °F - 42.8 °F 66% 30.25 in 10.0 mi SE 5.8 mph - N/A   Clear
8:35 PM 52.9 °F - 42.6 °F 68% 30.25 in 10.0 mi SE 6.9 mph - N/A   Clear
8:54 PM 52.0 °F - 42.1 °F 69% 30.26 in 10.0 mi SE 6.9 mph - N/A   Clear
9:15 PM 50.7 °F - 41.9 °F 72% 30.27 in 10.0 mi SE 6.9 mph - N/A   Clear
9:35 PM 50.4 °F - 41.9 °F 73% 30.27 in 10.0 mi SE 8.1 mph - N/A   Clear
9:54 PM 51.1 °F - 42.6 °F 73% 30.27 in 10.0 mi SE 6.9 mph - N/A   Clear
10:15 PM 50.9 °F - 42.8 °F 74% 30.27 in 10.0 mi SE 5.8 mph - N/A   Clear
10:35 PM 50.0 °F - 42.6 °F 76% 30.27 in 10.0 mi SE 5.8 mph - N/A   Clear
10:54 PM 48.2 °F - 43.0 °F 82% 30.27 in 10.0 mi SE 4.6 mph - N/A   Clear
11:15 PM 49.5 °F - 43.7 °F 81% 30.27 in 10.0 mi SE 4.6 mph - N/A   Clear
11:35 PM 49.3 °F - 43.7 °F 81% 30.27 in 10.0 mi ESE 4.6 mph - N/A   Clear
11:54 PM 49.1 °F - 43.9 °F 82% 30.27 in 10.0 mi Calm Calm - N/A   Clear